Time;durP1;ratioP1;P1;durP2;ratioP2;P2;SDS_P1;SDS_P2;PMS_P1;PMS_P2;Temp;Humidity;BMP_temperature;BMP_pressure;BME280_temperature;BME280_humidity;BME280_pressure;Samples;Min_cycle;Max_cycle;Signal;HPM_P1;HPM_P2
2022/03/17 00:01:27;;;;;;;;;;;;;;;15.18;33.33;101946.31;5051741;28;19986;-73
2022/03/17 00:03:52;;;;;;;;;;;;;;;14.67;34.17;101950.72;5052298;28;20019;-73
2022/03/17 00:06:18;;;;;;;;;;;;;;;14.57;34.40;101941.63;5049699;28;19971;-73
2022/03/17 00:08:43;;;;;;;;;;;;;;;14.64;34.05;101931.28;5049300;28;19928;-73
2022/03/17 00:11:08;;;;;;;;;;;;;;;14.74;34.14;101931.34;5051165;28;20000;-73
2022/03/17 00:13:33;;;;;;;;;;;;;;;14.31;35.22;101927.00;5033954;28;20345;-73
2022/03/17 00:15:59;;;;;;;;;;;;;;;14.34;34.61;101926.50;5052323;28;20418;-74
2022/03/17 00:18:25;;;;;;;;;;;;;;;14.57;34.36;101926.09;5052691;28;20012;-74
2022/03/17 00:20:50;;;;;;;;;;;;;;;14.55;34.50;101930.16;5049290;28;19925;-73
2022/03/17 00:23:15;;;;;;;;;;;;;;;14.37;34.91;101922.41;5044386;28;19972;-74
2022/03/17 00:25:41;;;;;;;;;;;;;;;13.63;36.52;101911.44;5040325;28;19943;-72
2022/03/17 00:28:06;;;;;;;;;;;;;;;14.54;34.88;101917.59;5040188;28;19968;-73
2022/03/17 00:30:31;;;;;;;;;;;;;;;14.52;34.74;101923.31;5042948;28;19924;-73
2022/03/17 00:32:56;;;;;;;;;;;;;;;14.09;35.43;101923.53;5037369;28;19918;-73
2022/03/17 00:35:42;;;;;;;;;;;;;;;13.75;36.53;101916.72;5032230;28;19932;-74
2022/03/17 00:38:13;;;;;;;;;;;;;;;13.77;36.03;101922.75;5032405;28;19960;-74
2022/03/17 00:40:39;;;;;;;;;;;;;;;14.15;35.40;101925.22;5031663;28;19937;-73
2022/03/17 00:43:05;;;;;;;;;;;;;;;14.27;35.06;101920.44;5032219;28;20336;-73
2022/03/17 00:45:31;;;;;;;;;;;;;;;14.51;34.43;101918.94;5032574;28;20408;-72
2022/03/17 00:47:56;;;;;;;;;;;;;;;14.76;33.82;101918.22;5031965;28;19960;-74
2022/03/17 00:50:22;;;;;;;;;;;;;;;14.51;34.85;101918.13;5031776;28;20373;-74
2022/03/17 00:52:47;;;;;;;;;;;;;;;14.10;35.51;101914.28;5032444;28;20118;-73
2022/03/17 00:55:13;;;;;;;;;;;;;;;14.47;34.81;101919.72;5032487;28;20298;-73
2022/03/17 00:57:39;;;;;;;;;;;;;;;14.77;34.17;101911.69;5031011;28;19916;-73
2022/03/17 01:00:05;;;;;;;;;;;;;;;14.41;34.74;101910.69;5030783;28;20289;-74
2022/03/17 01:02:31;;;;;;;;;;;;;;;14.54;34.92;101912.13;5032365;28;20504;-74
2022/03/17 01:04:56;;;;;;;;;;;;;;;14.41;35.76;101905.22;5032114;28;19927;-72
2022/03/17 01:07:21;;;;;;;;;;;;;;;14.48;35.70;101899.53;5032120;28;20369;-72
2022/03/17 01:09:46;;;;;;;;;;;;;;;14.82;35.81;101901.59;5033254;28;20009;-72
2022/03/17 01:12:12;;;;;;;;;;;;;;;14.88;35.41;101892.34;5032219;28;19921;-73
2022/03/17 01:14:37;;;;;;;;;;;;;;;14.80;36.26;101886.56;5032221;28;19964;-74
2022/03/17 01:17:02;;;;;;;;;;;;;;;14.63;37.05;101885.94;5034967;28;19991;-73
2022/03/17 01:19:27;;;;;;;;;;;;;;;14.97;36.29;101890.72;5041470;28;20380;-73
2022/03/17 01:21:55;;;;;;;;;;;;;;;14.62;37.33;101914.34;5055468;28;20456;-73
2022/03/17 01:24:20;;;;;;;;;;;;;;;14.20;38.28;101921.75;5055213;28;20427;-72
2022/03/17 01:26:46;;;;;;;;;;;;;;;14.09;38.55;101915.34;5055758;28;20376;-72
2022/03/17 01:29:11;;;;;;;;;;;;;;;14.78;37.43;101905.97;5055474;28;19929;-74
2022/03/17 01:31:37;;;;;;;;;;;;;;;14.78;36.73;101903.22;5054956;28;19952;-72
2022/03/17 01:34:03;;;;;;;;;;;;;;;13.85;39.16;101897.72;5055631;28;19913;-75
2022/03/17 01:36:29;;;;;;;;;;;;;;;14.14;38.53;101888.09;5055768;28;19955;-73
2022/03/17 01:38:54;;;;;;;;;;;;;;;14.61;37.69;101885.41;5055726;28;19917;-73
2022/03/17 01:41:19;;;;;;;;;;;;;;;14.95;36.88;101876.50;5055387;28;19921;-73
2022/03/17 01:43:44;;;;;;;;;;;;;;;14.70;37.01;101884.63;5055247;28;19921;-75
2022/03/17 01:46:11;;;;;;;;;;;;;;;14.40;37.64;101892.66;5055553;28;19917;-72
2022/03/17 01:48:37;;;;;;;;;;;;;;;13.86;38.59;101891.16;5055589;28;19925;-74
2022/03/17 01:51:02;;;;;;;;;;;;;;;13.98;38.90;101876.28;5055151;28;19921;-72
2022/03/17 01:53:27;;;;;;;;;;;;;;;13.55;39.59;101884.66;5055549;28;19928;-73
2022/03/17 01:55:53;;;;;;;;;;;;;;;13.95;38.90;101882.22;5054792;28;19952;-73
2022/03/17 01:58:18;;;;;;;;;;;;;;;14.28;38.27;101874.84;5054771;28;20011;-74
2022/03/17 02:00:44;;;;;;;;;;;;;;;14.01;38.54;101870.28;5055854;28;19917;-73
2022/03/17 02:03:09;;;;;;;;;;;;;;;13.45;39.92;101873.66;5054806;28;19917;-72
2022/03/17 02:05:34;;;;;;;;;;;;;;;14.11;38.06;101875.81;5054950;28;20018;-73
2022/03/17 02:08:00;;;;;;;;;;;;;;;14.21;38.20;101879.69;5053769;28;19920;-74
2022/03/17 02:10:25;;;;;;;;;;;;;;;13.66;38.90;101878.19;5054926;28;20300;-74
2022/03/17 02:13:09;;;;;;;;;;;;;;;13.99;38.65;101879.78;5054282;28;19913;-75
2022/03/17 02:15:34;;;;;;;;;;;;;;;14.32;38.17;101879.53;5055365;28;19989;-74
2022/03/17 02:18:00;;;;;;;;;;;;;;;13.81;39.05;101883.75;5054670;28;19991;-73
2022/03/17 02:20:26;;;;;;;;;;;;;;;14.11;38.11;101881.25;5054411;28;19951;-74
2022/03/17 02:22:52;;;;;;;;;;;;;;;13.99;38.31;101877.06;5054853;28;20357;-74
2022/03/17 02:25:34;;;;;;;;;;;;;;;13.44;39.25;101874.72;5054894;28;19927;-72
2022/03/17 02:27:59;;;;;;;;;;;;;;;14.29;38.13;101874.56;5053990;28;19956;-73
2022/03/17 02:30:25;;;;;;;;;;;;;;;14.43;38.53;101874.91;5055263;28;19960;-74
2022/03/17 02:32:59;;;;;;;;;;;;;;;14.21;38.52;101876.97;5063778;28;20364;-73
2022/03/17 02:35:25;;;;;;;;;;;;;;;14.36;38.31;101874.34;5074658;28;19921;-74
2022/03/17 02:37:50;;;;;;;;;;;;;;;14.08;38.43;101870.06;5054498;28;19975;-75
2022/03/17 02:40:15;;;;;;;;;;;;;;;14.05;38.52;101857.75;5054646;28;20365;-75
2022/03/17 02:42:41;;;;;;;;;;;;;;;14.18;37.93;101853.75;5054623;28;19912;-74
2022/03/17 02:45:08;;;;;;;;;;;;;;;14.30;38.02;101857.13;5054311;28;19921;-72
2022/03/17 02:47:33;;;;;;;;;;;;;;;14.16;38.17;101855.91;5054192;28;20280;-73
2022/03/17 02:49:59;;;;;;;;;;;;;;;14.88;36.96;101856.81;5053473;28;19921;-74
2022/03/17 02:52:25;;;;;;;;;;;;;;;14.44;37.71;101852.81;5054160;28;19939;-73
2022/03/17 02:54:51;;;;;;;;;;;;;;;13.92;39.12;101854.66;5049290;28;19967;-74
2022/03/17 02:57:17;;;;;;;;;;;;;;;13.60;39.27;101862.88;5033630;28;19921;-74
2022/03/17 02:59:42;;;;;;;;;;;;;;;14.38;38.11;101850.34;5034011;28;19928;-73
2022/03/17 03:02:07;;;;;;;;;;;;;;;14.49;37.83;101861.03;5032465;28;20308;-72
2022/03/17 03:04:36;;;;;;;;;;;;;;;14.00;38.76;101865.91;5048169;28;20299;-72
2022/03/17 03:07:06;;;;;;;;;;;;;;;12.94;41.08;101871.44;5053738;28;19916;-72
2022/03/17 03:09:31;;;;;;;;;;;;;;;13.03;41.65;101886.25;5053975;28;19921;-72
2022/03/17 03:11:57;;;;;;;;;;;;;;;12.31;42.50;101886.41;5038648;28;19963;-73
2022/03/17 03:14:22;;;;;;;;;;;;;;;13.41;41.00;101890.78;5033360;28;20007;-73
2022/03/17 03:16:48;;;;;;;;;;;;;;;13.19;41.13;101902.53;5033425;28;19925;-73
2022/03/17 03:19:13;;;;;;;;;;;;;;;13.37;40.84;101898.66;5032988;28;19917;-72
2022/03/17 03:21:39;;;;;;;;;;;;;;;13.15;41.12;101904.13;5034057;28;19917;-74
2022/03/17 03:24:04;;;;;;;;;;;;;;;13.61;40.49;101907.31;5033990;28;19928;-72
2022/03/17 03:26:30;;;;;;;;;;;;;;;13.53;40.72;101896.88;5033787;28;19975;-73
2022/03/17 03:28:56;;;;;;;;;;;;;;;13.79;40.47;101907.75;5041430;28;20312;-74
2022/03/17 03:31:21;;;;;;;;;;;;;;;13.04;42.94;101906.97;5053474;28;19920;-72
2022/03/17 03:33:47;;;;;;;;;;;;;;;13.36;41.99;101916.06;5053822;28;19913;-73
2022/03/17 03:38:56;;;;;;;;;;;;;;;13.05;43.28;101916.78;5053405;28;20412;-73
2022/03/17 03:41:22;;;;;;;;;;;;;;;13.45;41.99;101932.78;5053083;28;19925;-73
2022/03/17 03:43:47;;;;;;;;;;;;;;;13.69;42.07;101934.13;5053177;28;19924;-73
2022/03/17 03:46:12;;;;;;;;;;;;;;;13.20;43.95;101936.84;5053023;28;20008;-73
2022/03/17 03:48:38;;;;;;;;;;;;;;;13.73;42.56;101936.09;5052985;28;19917;-72
2022/03/17 03:51:04;;;;;;;;;;;;;;;12.30;47.10;101939.19;5052529;28;20377;-73
2022/03/17 03:54:12;;;;;;;;;;;;;;;12.61;46.98;101947.84;5052794;28;19923;-73
2022/03/17 03:56:14;;;;;;;;;;;;;;;12.16;48.87;101942.50;5052440;28;19967;-73
2022/03/17 03:58:40;;;;;;;;;;;;;;;12.43;48.95;101951.66;5050758;28;20002;-73
2022/03/17 04:01:05;;;;;;;;;;;;;;;12.42;49.28;101959.00;5052383;28;19921;-73
2022/03/17 04:03:30;;;;;;;;;;;;;;;12.19;50.26;101958.31;5052959;28;20004;-72
2022/03/17 04:05:55;;;;;;;;;;;;;;;12.33;50.27;101962.38;5052556;28;19927;-73
2022/03/17 04:08:21;;;;;;;;;;;;;;;12.32;50.21;101968.88;5052097;28;19925;-72
2022/03/17 04:10:46;;;;;;;;;;;;;;;13.07;48.93;101974.56;5052219;28;19982;-72
2022/03/17 04:13:11;;;;;;;;;;;;;;;12.63;50.10;101978.34;5052156;28;19940;-71
2022/03/17 04:15:36;;;;;;;;;;;;;;;11.33;54.37;101991.28;5052707;28;20446;-71
2022/03/17 04:18:02;;;;;;;;;;;;;;;10.96;56.50;101996.22;5052249;28;19917;-73
2022/03/17 04:20:27;;;;;;;;;;;;;;;10.90;57.51;102009.94;5051655;28;19924;-73
2022/03/17 04:22:53;;;;;;;;;;;;;;;11.44;55.86;102007.56;5051844;28;19927;-73
2022/03/17 04:25:18;;;;;;;;;;;;;;;9.70;61.92;102052.78;5051139;28;19932;-72
2022/03/17 04:27:43;;;;;;;;;;;;;;;9.40;58.97;102070.03;5052687;28;19923;-73
2022/03/17 04:30:09;;;;;;;;;;;;;;;8.91;59.57;102073.69;5050730;28;20328;-74
2022/03/17 04:32:34;;;;;;;;;;;;;;;9.60;57.91;102067.94;5052005;28;19970;-72
2022/03/17 04:34:59;;;;;;;;;;;;;;;9.58;57.46;102070.03;5051864;28;19974;-72
2022/03/17 04:37:24;;;;;;;;;;;;;;;10.08;55.50;102081.47;5052012;28;19921;-74
2022/03/17 04:39:50;;;;;;;;;;;;;;;8.98;57.07;102090.69;5052542;28;19920;-73
2022/03/17 04:42:15;;;;;;;;;;;;;;;9.23;56.98;102096.91;5052297;28;19964;-74
2022/03/17 04:44:40;;;;;;;;;;;;;;;9.35;56.35;102107.81;5052204;28;19925;-73
2022/03/17 04:47:06;;;;;;;;;;;;;;;8.57;58.13;102117.50;5052342;28;19928;-74
2022/03/17 04:49:31;;;;;;;;;;;;;;;9.22;56.18;102121.47;5051750;28;19943;-73
2022/03/17 04:51:56;;;;;;;;;;;;;;;9.37;56.42;102121.97;5055184;28;19913;-73
2022/03/17 04:54:21;;;;;;;;;;;;;;;9.37;56.14;102130.88;5055483;28;19921;-72
2022/03/17 04:56:47;;;;;;;;;;;;;;;9.67;54.88;102141.84;5055759;28;20368;-73
2022/03/17 04:59:12;;;;;;;;;;;;;;;8.54;57.90;102151.25;5055898;28;20050;-73
2022/03/17 05:01:38;;;;;;;;;;;;;;;9.32;56.45;102157.84;5055358;28;20015;-72
2022/03/17 05:04:04;;;;;;;;;;;;;;;9.73;54.30;102159.91;5055623;28;19920;-73
2022/03/17 05:06:29;;;;;;;;;;;;;;;9.22;55.37;102175.63;5056064;28;19915;-72
2022/03/17 05:08:55;;;;;;;;;;;;;;;9.50;54.42;102176.84;5054119;28;20301;-73
2022/03/17 05:11:20;;;;;;;;;;;;;;;8.91;55.59;102180.09;5055823;28;19928;-75
2022/03/17 05:13:46;;;;;;;;;;;;;;;9.44;53.71;102188.59;5056132;28;19921;-74
2022/03/17 05:16:13;;;;;;;;;;;;;;;10.51;51.52;102198.75;5054356;28;19959;-74
2022/03/17 05:18:38;;;;;;;;;;;;;;;9.92;53.14;102199.50;5056500;28;19999;-74
2022/03/17 05:21:04;;;;;;;;;;;;;;;9.30;54.73;102214.13;5041913;28;20310;-74
2022/03/17 05:23:31;;;;;;;;;;;;;;;9.22;54.94;102211.69;5035344;28;19925;-73
2022/03/17 05:25:56;;;;;;;;;;;;;;;9.60;53.18;102209.69;5035341;28;19932;-73
2022/03/17 05:28:22;;;;;;;;;;;;;;;9.45;53.48;102217.31;5035340;28;19929;-73
2022/03/17 05:30:47;;;;;;;;;;;;;;;9.59;53.19;102224.25;5036223;28;19917;-73
2022/03/17 05:33:13;;;;;;;;;;;;;;;9.71;52.55;102227.91;5035352;28;19921;-72
2022/03/17 05:35:39;;;;;;;;;;;;;;;9.32;53.27;102233.69;5035179;28;19928;-74
2022/03/17 05:38:04;;;;;;;;;;;;;;;9.41;53.24;102243.16;5035431;28;19928;-72
2022/03/17 05:40:30;;;;;;;;;;;;;;;9.98;51.91;102250.09;5035450;28;20043;-74
2022/03/17 05:42:59;;;;;;;;;;;;;;;9.14;54.35;102260.69;5035601;28;19921;-73
2022/03/17 05:45:28;;;;;;;;;;;;;;;9.48;53.32;102272.94;5035412;28;19921;-74
2022/03/17 05:47:55;;;;;;;;;;;;;;;9.43;52.89;102283.63;5034942;28;19925;-72
2022/03/17 05:50:22;;;;;;;;;;;;;;;8.22;55.97;102297.41;5050161;28;19921;-74
2022/03/17 05:52:47;;;;;;;;;;;;;;;8.34;55.34;102295.75;5033361;28;20274;-73
2022/03/17 05:55:14;;;;;;;;;;;;;;;8.93;54.01;102299.81;5034920;28;19917;-73
2022/03/17 05:57:39;;;;;;;;;;;;;;;8.64;54.63;102322.03;5035429;28;20340;-73
2022/03/17 06:00:06;;;;;;;;;;;;;;;8.57;54.70;102329.34;5034976;28;19921;-72
2022/03/17 06:02:31;;;;;;;;;;;;;;;9.00;53.55;102326.81;5033699;28;19921;-74
2022/03/17 06:04:56;;;;;;;;;;;;;;;8.03;55.42;102337.81;5034709;28;19928;-74
2022/03/17 06:07:21;;;;;;;;;;;;;;;8.21;54.38;102347.97;5035083;28;20281;-73
2022/03/17 06:09:47;;;;;;;;;;;;;;;8.31;54.82;102356.50;5018320;28;20365;-73
2022/03/17 06:12:15;;;;;;;;;;;;;;;8.78;53.25;102369.63;5017005;28;19944;-72
2022/03/17 06:14:40;;;;;;;;;;;;;;;9.40;51.57;102362.59;5035077;28;20574;-73
2022/03/17 06:17:06;;;;;;;;;;;;;;;9.10;52.41;102364.25;5034403;28;19946;-73
2022/03/17 06:19:31;;;;;;;;;;;;;;;8.94;51.73;102371.84;5034637;28;19921;-72
2022/03/17 06:21:58;;;;;;;;;;;;;;;8.58;53.26;102384.31;5042790;28;20007;-73
2022/03/17 06:24:23;;;;;;;;;;;;;;;8.28;54.13;102385.84;5043320;28;20357;-73
2022/03/17 06:26:49;;;;;;;;;;;;;;;8.56;53.09;102397.22;5048316;28;20023;-72
2022/03/17 06:29:15;;;;;;;;;;;;;;;8.82;52.50;102402.50;5054178;28;20011;-74
2022/03/17 06:31:40;;;;;;;;;;;;;;;8.26;53.89;102407.66;5051586;28;20316;-73
2022/03/17 06:34:06;;;;;;;;;;;;;;;8.20;53.53;102427.44;5036262;28;19983;-73
2022/03/17 06:36:31;;;;;;;;;;;;;;;8.19;53.88;102423.03;5044072;28;19925;-75
2022/03/17 06:38:57;;;;;;;;;;;;;;;8.74;52.22;102425.22;5042713;28;20388;-74
2022/03/17 06:41:22;;;;;;;;;;;;;;;9.17;51.02;102433.59;5054116;28;19917;-74
2022/03/17 06:43:47;;;;;;;;;;;;;;;8.45;52.37;102438.41;5036083;28;19925;-72
2022/03/17 06:46:13;;;;;;;;;;;;;;;8.83;50.95;102451.03;5043498;28;19991;-70
2022/03/17 06:48:38;;;;;;;;;;;;;;;8.68;51.23;102455.03;5046053;28;20317;-73
2022/03/17 06:51:03;;;;;;;;;;;;;;;8.49;51.36;102450.47;5047327;28;19921;-73
2022/03/17 06:53:29;;;;;;;;;;;;;;;7.86;52.86;102454.66;5036181;28;19932;-74
2022/03/17 06:55:54;;;;;;;;;;;;;;;7.94;53.41;102465.28;5033641;28;19921;-73
2022/03/17 06:58:19;;;;;;;;;;;;;;;8.78;51.12;102472.47;5033397;28;19925;-74
2022/03/17 07:00:44;;;;;;;;;;;;;;;8.87;50.63;102475.78;5033790;28;19923;-73
2022/03/17 07:03:10;;;;;;;;;;;;;;;8.56;52.31;102481.06;5033293;28;20395;-72
2022/03/17 07:05:53;;;;;;;;;;;;;;;9.27;51.24;102500.81;5034536;28;20313;-75
2022/03/17 07:08:18;;;;;;;;;;;;;;;7.95;54.30;102502.91;5032876;28;19926;-74
2022/03/17 07:10:44;;;;;;;;;;;;;;;7.92;54.63;102514.13;5032994;28;19928;-74
2022/03/17 07:13:09;;;;;;;;;;;;;;;7.64;55.96;102516.16;5031403;28;19920;-74
2022/03/17 07:15:34;;;;;;;;;;;;;;;8.57;53.21;102523.31;5037075;28;19921;-71
2022/03/17 07:18:00;;;;;;;;;;;;;;;8.64;52.74;102533.06;5038578;28;19928;-73
2022/03/17 07:23:28;;;;;;;;;;;;;;;8.07;54.14;102552.63;5032679;28;19964;-73
2022/03/17 07:25:53;;;;;;;;;;;;;;;8.38;53.03;102551.22;5033144;28;20293;-75
2022/03/17 07:28:20;;;;;;;;;;;;;;;8.40;52.89;102570.78;5015243;28;19936;-74
2022/03/17 07:30:46;;;;;;;;;;;;;;;7.94;53.46;102573.38;5033355;28;19921;-73
2022/03/17 07:33:11;;;;;;;;;;;;;;;8.45;52.64;102568.25;5033087;28;19943;-74
2022/03/17 07:35:53;;;;;;;;;;;;;;;8.52;52.71;102566.41;5033185;28;19971;-72
2022/03/17 07:38:18;;;;;;;;;;;;;;;7.81;53.63;102585.00;5031776;28;20318;-72
2022/03/17 07:40:45;;;;;;;;;;;;;;;7.18;54.48;102575.41;5033348;28;20008;-72
2022/03/17 07:43:11;;;;;;;;;;;;;;;7.86;52.79;102604.13;5031828;28;19932;-71
2022/03/17 07:45:36;;;;;;;;;;;;;;;8.35;51.99;102603.84;5032075;28;19913;-72
2022/03/17 07:48:02;;;;;;;;;;;;;;;8.45;51.92;102608.84;5032257;28;19928;-74
2022/03/17 07:50:27;;;;;;;;;;;;;;;7.62;56.04;102629.00;5031974;28;20055;-73
2022/03/17 07:53:11;;;;;;;;;;;;;;;7.84;56.18;102630.53;5032211;28;19971;-73
2022/03/17 07:55:36;;;;;;;;;;;;;;;7.32;57.54;102634.88;5031756;28;19928;-73
2022/03/17 07:58:02;;;;;;;;;;;;;;;7.93;55.51;102647.41;5032129;28;19913;-73
2022/03/17 08:00:28;;;;;;;;;;;;;;;7.49;56.29;102641.59;5032320;28;20413;-73
2022/03/17 08:02:54;;;;;;;;;;;;;;;8.20;54.48;102641.03;5032055;28;19917;-73
2022/03/17 08:05:19;;;;;;;;;;;;;;;7.60;55.24;102649.97;5031939;28;19921;-72
2022/03/17 08:07:45;;;;;;;;;;;;;;;8.40;53.88;102662.72;5031613;28;19939;-73
2022/03/17 08:10:10;;;;;;;;;;;;;;;7.42;55.17;102668.59;5031255;28;19975;-72
2022/03/17 08:12:35;;;;;;;;;;;;;;;8.03;54.18;102688.41;5032082;28;20018;-72
2022/03/17 08:15:02;;;;;;;;;;;;;;;7.63;53.93;102692.81;5030600;28;20288;-72
2022/03/17 08:17:28;;;;;;;;;;;;;;;7.25;53.23;102702.31;5031091;28;19991;-74
2022/03/17 08:19:53;;;;;;;;;;;;;;;6.43;51.85;102701.19;5022713;28;20377;-71
2022/03/17 08:22:19;;;;;;;;;;;;;;;6.89;52.02;102704.31;5035537;28;19933;-72
2022/03/17 08:24:44;;;;;;;;;;;;;;;7.67;49.16;102706.75;5053079;28;19946;-71
2022/03/17 08:27:09;;;;;;;;;;;;;;;7.50;48.24;102706.25;5057567;28;20415;-73
2022/03/17 08:29:34;;;;;;;;;;;;;;;7.26;49.43;102711.25;5056016;28;19936;-74
2022/03/17 08:32:04;;;;;;;;;;;;;;;7.99;47.52;102720.41;5059948;28;19917;-73
2022/03/17 08:34:29;;;;;;;;;;;;;;;8.31;47.05;102742.41;5062025;28;20223;-71
2022/03/17 08:36:55;;;;;;;;;;;;;;;8.25;47.58;102729.66;5056249;28;19924;-74
2022/03/17 08:39:20;;;;;;;;;;;;;;;9.11;45.49;102729.59;5065441;28;19916;-73
2022/03/17 08:41:46;;;;;;;;;;;;;;;8.09;47.97;102742.47;5068220;28;19927;-74
2022/03/17 08:44:11;;;;;;;;;;;;;;;8.52;47.21;102734.13;5062520;28;19986;-74
2022/03/17 08:49:21;;;;;;;;;;;;;;;8.78;46.68;102750.41;5046968;28;19932;-74
2022/03/17 08:51:49;;;;;;;;;;;;;;;8.36;48.48;102756.97;5055498;28;20292;-72
2022/03/17 08:54:15;;;;;;;;;;;;;;;7.84;48.35;102749.44;5069507;28;20463;-75
2022/03/17 08:56:40;;;;;;;;;;;;;;;8.57;47.52;102766.81;5055697;28;19959;-72
2022/03/17 08:59:06;;;;;;;;;;;;;;;7.81;49.21;102771.47;5057879;28;19917;-74
2022/03/17 09:01:31;;;;;;;;;;;;;;;8.49;48.19;102766.97;5061426;28;20015;-73
2022/03/17 09:03:56;;;;;;;;;;;;;;;8.23;48.23;102777.69;5067033;28;19923;-72
2022/03/17 09:06:22;;;;;;;;;;;;;;;8.65;47.40;102778.28;5070019;28;20338;-74
2022/03/17 09:08:48;;;;;;;;;;;;;;;9.14;46.05;102791.47;5053855;28;19932;-73
2022/03/17 09:11:13;;;;;;;;;;;;;;;8.58;47.44;102796.38;5050321;28;19921;-73
2022/03/17 09:13:39;;;;;;;;;;;;;;;9.12;46.75;102807.09;5052414;28;19924;-73
2022/03/17 09:16:06;;;;;;;;;;;;;;;8.00;48.55;102813.16;5059837;28;19921;-74
2022/03/17 09:18:31;;;;;;;;;;;;;;;7.65;48.90;102814.16;5056696;28;19919;-73
2022/03/17 09:20:56;;;;;;;;;;;;;;;8.36;47.92;102826.47;5057013;28;20360;-74
2022/03/17 09:23:22;;;;;;;;;;;;;;;7.51;48.66;102825.91;5055480;28;19921;-74
2022/03/17 09:25:47;;;;;;;;;;;;;;;8.82;46.36;102822.03;5061773;28;19944;-72
2022/03/17 09:28:14;;;;;;;;;;;;;;;9.05;46.01;102837.91;5066728;28;19972;-73
2022/03/17 09:30:39;;;;;;;;;;;;;;;9.33;45.92;102836.66;5060363;28;19970;-75
2022/03/17 09:33:05;;;;;;;;;;;;;;;8.83;46.59;102848.91;5065198;28;19924;-74
2022/03/17 09:35:31;;;;;;;;;;;;;;;8.62;47.34;102867.16;5056064;28;19921;-73
2022/03/17 09:37:56;;;;;;;;;;;;;;;9.31;45.20;102867.75;5062041;28;19928;-73
2022/03/17 09:40:21;;;;;;;;;;;;;;;8.95;44.91;102870.81;5061501;28;19924;-74
2022/03/17 09:42:47;;;;;;;;;;;;;;;8.21;46.77;102877.94;5060573;28;19917;-73
2022/03/17 09:45:13;;;;;;;;;;;;;;;7.82;48.07;102874.97;5072031;28;19920;-74
2022/03/17 09:47:43;;;;;;;;;;;;;;;7.88;47.32;102887.69;5068959;28;19916;-73
2022/03/17 09:50:10;;;;;;;;;;;;;;;9.46;43.70;102890.91;5069896;28;19931;-75
2022/03/17 09:52:36;;;;;;;;;;;;;;;9.17;45.03;102888.56;5059607;28;19920;-73
2022/03/17 09:55:01;;;;;;;;;;;;;;;9.50;44.44;102888.63;5059925;28;20016;-75
2022/03/17 09:57:27;;;;;;;;;;;;;;;9.41;44.99;102900.69;5063403;28;19992;-73
2022/03/17 09:59:58;;;;;;;;;;;;;;;9.62;44.26;102886.97;5058375;28;20372;-73
2022/03/17 10:02:24;;;;;;;;;;;;;;;8.31;47.43;102900.06;5068212;28;20365;-72
2022/03/17 10:04:49;;;;;;;;;;;;;;;9.74;44.77;102910.50;5062803;28;19927;-74
2022/03/17 10:07:17;;;;;;;;;;;;;;;10.80;42.85;102913.84;5059881;28;19917;-74
2022/03/17 10:09:43;;;;;;;;;;;;;;;10.12;43.80;102912.56;5054829;28;19928;-72
2022/03/17 10:12:10;;;;;;;;;;;;;;;9.98;44.87;102913.63;5064268;28;19920;-73
2022/03/17 10:14:35;;;;;;;;;;;;;;;8.66;47.20;102917.13;5062668;28;20300;-72
2022/03/17 10:17:03;;;;;;;;;;;;;;;10.29;44.54;102914.63;5054908;28;19996;-74
2022/03/17 10:19:32;;;;;;;;;;;;;;;10.43;43.46;102929.81;5062920;28;20347;-72
2022/03/17 10:22:28;;;;;;;;;;;;;;;10.64;43.10;102924.16;5052441;28;19927;-72
2022/03/17 10:24:54;;;;;;;;;;;;;;;10.63;42.92;102932.50;5054975;28;19948;-72
2022/03/17 10:27:41;;;;;;;;;;;;;;;10.28;42.91;102937.38;5068730;28;19970;-72
2022/03/17 10:30:07;;;;;;;;;;;;;;;9.74;44.39;102939.50;5057586;28;19990;-74
2022/03/17 10:32:32;;;;;;;;;;;;;;;8.60;45.20;102948.50;5061899;28;19924;-74
2022/03/17 10:34:57;;;;;;;;;;;;;;;9.79;42.20;102955.97;5062113;28;19921;-72
2022/03/17 10:37:24;;;;;;;;;;;;;;;9.50;40.52;102962.63;5067969;28;19955;-73
2022/03/17 10:39:51;;;;;;;;;;;;;;;9.91;41.30;102958.88;5061231;28;20280;-73
2022/03/17 10:42:19;;;;;;;;;;;;;;;10.83;39.79;102970.44;5063996;28;19924;-74
2022/03/17 10:44:46;;;;;;;;;;;;;;;10.22;40.77;102972.63;5054144;28;19920;-73
2022/03/17 10:47:11;;;;;;;;;;;;;;;9.99;41.07;102978.50;5056301;28;19947;-74
2022/03/17 10:49:37;;;;;;;;;;;;;;;9.80;40.45;102985.59;5052439;28;19925;-74
2022/03/17 10:52:20;;;;;;;;;;;;;;;10.08;39.76;102982.66;5061809;28;19917;-74
2022/03/17 10:54:55;;;;;;;;;;;;;;;10.10;39.55;102996.00;5068431;28;19924;-72
2022/03/17 10:57:23;;;;;;;;;;;;;;;10.64;39.16;103007.47;5055186;28;19921;-73
2022/03/17 10:59:52;;;;;;;;;;;;;;;9.59;41.14;103006.59;5058586;28;19927;-73
2022/03/17 11:02:20;;;;;;;;;;;;;;;9.41;40.83;103009.06;5058443;28;19932;-73
2022/03/17 11:04:47;;;;;;;;;;;;;;;9.29;40.47;103030.47;5056705;28;19963;-73
2022/03/17 11:07:17;;;;;;;;;;;;;;;10.06;37.95;103035.47;5044193;28;19991;-74
2022/03/17 11:09:43;;;;;;;;;;;;;;;10.50;38.99;103030.25;5061835;28;19928;-74
2022/03/17 11:12:09;;;;;;;;;;;;;;;9.48;39.97;103029.75;5072513;28;19973;-73
2022/03/17 11:14:45;;;;;;;;;;;;;;;8.51;40.52;103057.94;5066414;28;19924;-73
2022/03/17 11:17:26;;;;;;;;;;;;;;;9.66;37.80;103042.72;5057760;28;19927;-72
2022/03/17 11:19:53;;;;;;;;;;;;;;;10.14;38.19;103054.22;5053844;28;19936;-73
2022/03/17 11:22:22;;;;;;;;;;;;;;;10.71;37.01;103049.00;5058119;28;19999;-73
2022/03/17 11:25:08;;;;;;;;;;;;;;;10.65;36.31;103058.00;5067578;28;19916;-72
2022/03/17 11:27:43;;;;;;;;;;;;;;;8.38;41.62;103071.38;5037858;28;19921;-74
2022/03/17 11:30:12;;;;;;;;;;;;;;;9.93;40.19;103059.84;5046477;28;19921;-75
2022/03/17 11:32:37;;;;;;;;;;;;;;;10.02;40.26;103043.16;5044780;28;20549;-73
2022/03/17 11:35:10;;;;;;;;;;;;;;;9.39;39.80;103076.97;5059550;28;19917;-71
2022/03/17 11:37:35;;;;;;;;;;;;;;;9.52;39.38;103068.09;5068527;28;20066;-74
2022/03/17 11:40:08;;;;;;;;;;;;;;;10.42;38.73;103079.28;5067419;28;20371;-73
2022/03/17 11:42:41;;;;;;;;;;;;;;;10.91;36.17;103085.09;5061504;28;19908;-74
2022/03/17 11:45:12;;;;;;;;;;;;;;;9.81;39.14;103084.88;5052806;28;19921;-73
2022/03/17 11:47:42;;;;;;;;;;;;;;;9.63;38.22;103089.19;5067735;28;19920;-75
2022/03/17 11:50:36;;;;;;;;;;;;;;;8.59;40.04;103090.28;5057224;28;20019;-74
2022/03/17 11:53:14;;;;;;;;;;;;;;;9.53;39.10;103086.03;4992172;28;20011;-74
2022/03/17 11:55:42;;;;;;;;;;;;;;;9.63;40.40;103094.59;4974402;28;19925;-75
2022/03/17 11:58:19;;;;;;;;;;;;;;;9.86;39.45;103097.81;4973861;28;19918;-74
2022/03/17 12:00:48;;;;;;;;;;;;;;;9.88;37.40;103097.59;4994212;28;19952;-75
2022/03/17 12:03:14;;;;;;;;;;;;;;;9.27;39.30;103107.56;4989641;28;19930;-74
2022/03/17 12:05:42;;;;;;;;;;;;;;;10.43;37.87;103108.13;4989530;28;20341;-75
2022/03/17 12:08:08;;;;;;;;;;;;;;;9.46;39.39;103114.97;4990534;28;19965;-75
2022/03/17 12:10:52;;;;;;;;;;;;;;;10.34;38.57;103122.91;4990119;28;19949;-75
2022/03/17 12:13:21;;;;;;;;;;;;;;;10.97;37.20;103119.56;4990971;28;20058;-74
2022/03/17 12:15:54;;;;;;;;;;;;;;;9.81;39.58;103125.53;4991124;28;20439;-75
2022/03/17 12:18:20;;;;;;;;;;;;;;;9.73;40.38;103120.28;4990473;28;19917;-73
2022/03/17 12:20:46;;;;;;;;;;;;;;;9.51;40.19;103126.88;4990596;28;19926;-75
2022/03/17 12:23:30;;;;;;;;;;;;;;;10.20;38.91;103121.22;4989817;28;20376;-75
2022/03/17 12:26:04;;;;;;;;;;;;;;;10.94;37.01;103132.75;4989990;28;19943;-73
2022/03/17 12:28:30;;;;;;;;;;;;;;;11.40;36.19;103117.97;5010531;28;19926;-74
2022/03/17 12:30:56;;;;;;;;;;;;;;;10.59;38.66;103138.41;5038682;28;19951;-74
2022/03/17 12:33:22;;;;;;;;;;;;;;;10.13;37.66;103129.38;5036783;28;20011;-75
2022/03/17 12:36:02;;;;;;;;;;;;;;;9.98;37.02;103128.69;5041231;28;19927;-72
2022/03/17 12:38:28;;;;;;;;;;;;;;;10.22;36.31;103138.97;5035692;28;19922;-71
2022/03/17 12:40:53;;;;;;;;;;;;;;;12.46;32.39;103135.41;5041180;28;19970;-71
2022/03/17 12:43:20;;;;;;;;;;;;;;;10.70;34.50;103145.09;5040531;28;19944;-74
2022/03/17 12:45:47;;;;;;;;;;;;;;;9.89;34.92;103140.78;5043304;28;20621;-74
2022/03/17 12:48:13;;;;;;;;;;;;;;;9.88;35.31;103136.38;5032304;28;19968;-74
2022/03/17 12:50:38;;;;;;;;;;;;;;;9.87;36.89;103140.16;5039354;28;20008;-74